sensor_id;sensor_type;location;lat;lon;timestamp;pressure;altitude;pressure_sealevel;temperature
77789;BMP280;70537;44.384;0.512;2023-07-29T00:00:56;101131.34;;;21.42
77789;BMP280;70537;44.384;0.512;2023-07-29T00:03:22;101119.94;;;21.38
77789;BMP280;70537;44.384;0.512;2023-07-29T00:05:47;101121.94;;;21.30
77789;BMP280;70537;44.384;0.512;2023-07-29T00:08:13;101120.09;;;21.25
77789;BMP280;70537;44.384;0.512;2023-07-29T00:10:39;101118.41;;;21.22
77789;BMP280;70537;44.384;0.512;2023-07-29T00:13:05;101120.28;;;21.19
77789;BMP280;70537;44.384;0.512;2023-07-29T00:15:31;101125.75;;;21.11
77789;BMP280;70537;44.384;0.512;2023-07-29T00:17:56;101120.44;;;21.06
77789;BMP280;70537;44.384;0.512;2023-07-29T00:20:22;101115.63;;;21.06
77789;BMP280;70537;44.384;0.512;2023-07-29T00:22:47;101112.50;;;21.02
77789;BMP280;70537;44.384;0.512;2023-07-29T00:25:15;101108.66;;;21.05
77789;BMP280;70537;44.384;0.512;2023-07-29T00:27:42;101101.25;;;21.00
77789;BMP280;70537;44.384;0.512;2023-07-29T00:30:07;101103.44;;;20.94
77789;BMP280;70537;44.384;0.512;2023-07-29T00:32:35;101100.09;;;20.88
77789;BMP280;70537;44.384;0.512;2023-07-29T00:35:00;101099.00;;;20.83
77789;BMP280;70537;44.384;0.512;2023-07-29T00:37:27;101111.53;;;20.84
77789;BMP280;70537;44.384;0.512;2023-07-29T00:39:53;101114.44;;;20.79
77789;BMP280;70537;44.384;0.512;2023-07-29T00:42:18;101108.53;;;20.75
77789;BMP280;70537;44.384;0.512;2023-07-29T00:44:44;101115.88;;;20.72
77789;BMP280;70537;44.384;0.512;2023-07-29T00:47:10;101106.09;;;20.63
77789;BMP280;70537;44.384;0.512;2023-07-29T00:49:36;101100.94;;;20.60
77789;BMP280;70537;44.384;0.512;2023-07-29T00:52:02;101104.03;;;20.56
77789;BMP280;70537;44.384;0.512;2023-07-29T00:54:28;101088.56;;;20.53
77789;BMP280;70537;44.384;0.512;2023-07-29T00:56:53;101088.91;;;20.50
77789;BMP280;70537;44.384;0.512;2023-07-29T00:59:19;101094.78;;;20.46
77789;BMP280;70537;44.384;0.512;2023-07-29T01:01:44;101094.25;;;20.48
77789;BMP280;70537;44.384;0.512;2023-07-29T01:04:10;101093.69;;;20.49
77789;BMP280;70537;44.384;0.512;2023-07-29T01:06:41;101086.91;;;20.50
77789;BMP280;70537;44.384;0.512;2023-07-29T01:12:07;101066.97;;;20.36
77789;BMP280;70537;44.384;0.512;2023-07-29T01:15:09;101075.22;;;20.29
77789;BMP280;70537;44.384;0.512;2023-07-29T01:17:43;101072.03;;;20.17
77789;BMP280;70537;44.384;0.512;2023-07-29T01:20:11;101088.97;;;20.21
77789;BMP280;70537;44.384;0.512;2023-07-29T01:22:39;101082.09;;;20.14
77789;BMP280;70537;44.384;0.512;2023-07-29T01:25:05;101075.25;;;20.08
77789;BMP280;70537;44.384;0.512;2023-07-29T01:27:31;101077.22;;;20.00
77789;BMP280;70537;44.384;0.512;2023-07-29T01:29:57;101069.84;;;19.94
77789;BMP280;70537;44.384;0.512;2023-07-29T01:32:37;101079.88;;;19.84
77789;BMP280;70537;44.384;0.512;2023-07-29T01:37:57;101084.84;;;19.86
77789;BMP280;70537;44.384;0.512;2023-07-29T01:40:27;101082.97;;;19.81
77789;BMP280;70537;44.384;0.512;2023-07-29T01:42:53;101066.78;;;19.77
77789;BMP280;70537;44.384;0.512;2023-07-29T01:45:19;101070.06;;;19.76
77789;BMP280;70537;44.384;0.512;2023-07-29T01:47:48;101068.94;;;19.71
77789;BMP280;70537;44.384;0.512;2023-07-29T01:50:13;101065.13;;;19.74
77789;BMP280;70537;44.384;0.512;2023-07-29T01:52:38;101068.59;;;19.75
77789;BMP280;70537;44.384;0.512;2023-07-29T01:55:04;101074.34;;;19.84
77789;BMP280;70537;44.384;0.512;2023-07-29T01:57:30;101065.16;;;19.82
77789;BMP280;70537;44.384;0.512;2023-07-29T01:59:55;101061.69;;;19.81
77789;BMP280;70537;44.384;0.512;2023-07-29T02:02:21;101045.97;;;19.68
77789;BMP280;70537;44.384;0.512;2023-07-29T02:04:46;101054.44;;;19.70
77789;BMP280;70537;44.384;0.512;2023-07-29T02:07:17;101039.50;;;19.66
77789;BMP280;70537;44.384;0.512;2023-07-29T02:09:42;101043.97;;;19.69
77789;BMP280;70537;44.384;0.512;2023-07-29T02:12:08;101042.25;;;19.66
77789;BMP280;70537;44.384;0.512;2023-07-29T02:14:33;101039.50;;;19.66
77789;BMP280;70537;44.384;0.512;2023-07-29T02:16:59;101040.59;;;19.63
77789;BMP280;70537;44.384;0.512;2023-07-29T02:19:24;101046.50;;;19.67
77789;BMP280;70537;44.384;0.512;2023-07-29T02:21:49;101035.63;;;19.61
77789;BMP280;70537;44.384;0.512;2023-07-29T02:24:15;101041.53;;;19.65
77789;BMP280;70537;44.384;0.512;2023-07-29T02:26:41;101038.75;;;19.65
77789;BMP280;70537;44.384;0.512;2023-07-29T02:29:06;101029.91;;;19.59
77789;BMP280;70537;44.384;0.512;2023-07-29T02:31:32;101021.63;;;19.52
77789;BMP280;70537;44.384;0.512;2023-07-29T02:33:59;101028.75;;;19.47
77789;BMP280;70537;44.384;0.512;2023-07-29T02:36:25;101011.81;;;19.43
77789;BMP280;70537;44.384;0.512;2023-07-29T02:38:50;101019.09;;;19.40
77789;BMP280;70537;44.384;0.512;2023-07-29T02:41:16;101025.31;;;19.33
77789;BMP280;70537;44.384;0.512;2023-07-29T02:43:42;101023.25;;;19.34
77789;BMP280;70537;44.384;0.512;2023-07-29T02:46:08;101015.69;;;19.27
77789;BMP280;70537;44.384;0.512;2023-07-29T02:48:34;101016.09;;;19.31
77789;BMP280;70537;44.384;0.512;2023-07-29T02:50:59;101003.75;;;19.24
77789;BMP280;70537;44.384;0.512;2023-07-29T02:53:25;101002.16;;;19.29
77789;BMP280;70537;44.384;0.512;2023-07-29T02:55:50;100994.19;;;19.25
77789;BMP280;70537;44.384;0.512;2023-07-29T02:58:16;101022.00;;;19.35
77789;BMP280;70537;44.384;0.512;2023-07-29T03:00:41;101002.56;;;19.33
77789;BMP280;70537;44.384;0.512;2023-07-29T03:03:08;101008.97;;;19.35
77789;BMP280;70537;44.384;0.512;2023-07-29T03:05:34;101008.25;;;19.35
77789;BMP280;70537;44.384;0.512;2023-07-29T03:07:59;100997.22;;;19.35
77789;BMP280;70537;44.384;0.512;2023-07-29T03:10:25;101001.25;;;19.34
77789;BMP280;70537;44.384;0.512;2023-07-29T03:12:51;101007.34;;;19.40
77789;BMP280;70537;44.384;0.512;2023-07-29T03:15:16;100995.63;;;19.39
77789;BMP280;70537;44.384;0.512;2023-07-29T03:17:42;100998.59;;;19.41
77789;BMP280;70537;44.384;0.512;2023-07-29T03:20:08;100998.19;;;19.37
77789;BMP280;70537;44.384;0.512;2023-07-29T03:22:33;100994.69;;;19.37
77789;BMP280;70537;44.384;0.512;2023-07-29T03:24:59;100983.81;;;19.31
77789;BMP280;70537;44.384;0.512;2023-07-29T03:27:24;100989.19;;;19.37
77789;BMP280;70537;44.384;0.512;2023-07-29T03:29:50;100983.28;;;19.33
77789;BMP280;70537;44.384;0.512;2023-07-29T03:32:15;100977.00;;;19.32
77789;BMP280;70537;44.384;0.512;2023-07-29T03:34:41;100979.78;;;19.32
77789;BMP280;70537;44.384;0.512;2023-07-29T03:37:06;100978.50;;;19.33
77789;BMP280;70537;44.384;0.512;2023-07-29T03:39:32;100975.56;;;19.31
77789;BMP280;70537;44.384;0.512;2023-07-29T03:41:58;100977.00;;;19.32
77789;BMP280;70537;44.384;0.512;2023-07-29T03:44:23;100970.56;;;19.30
77789;BMP280;70537;44.384;0.512;2023-07-29T03:46:49;100970.34;;;19.20
77789;BMP280;70537;44.384;0.512;2023-07-29T03:49:14;100970.13;;;19.18
77789;BMP280;70537;44.384;0.512;2023-07-29T03:51:40;100964.53;;;19.10
77789;BMP280;70537;44.384;0.512;2023-07-29T03:54:06;100979.19;;;19.05
77789;BMP280;70537;44.384;0.512;2023-07-29T03:56:32;100982.34;;;19.09
77789;BMP280;70537;44.384;0.512;2023-07-29T03:59:06;100984.13;;;19.07
77789;BMP280;70537;44.384;0.512;2023-07-29T04:01:32;100992.72;;;19.03
77789;BMP280;70537;44.384;0.512;2023-07-29T04:03:58;100990.31;;;19.00
77789;BMP280;70537;44.384;0.512;2023-07-29T04:06:24;100989.78;;;19.01
77789;BMP280;70537;44.384;0.512;2023-07-29T04:08:49;100984.28;;;19.01
77789;BMP280;70537;44.384;0.512;2023-07-29T04:11:15;100984.06;;;18.99
77789;BMP280;70537;44.384;0.512;2023-07-29T04:13:41;100979.50;;;19.02
77789;BMP280;70537;44.384;0.512;2023-07-29T04:16:07;100979.69;;;19.04
77789;BMP280;70537;44.384;0.512;2023-07-29T04:18:32;100974.53;;;19.00
77789;BMP280;70537;44.384;0.512;2023-07-29T04:20:58;100968.69;;;19.04
77789;BMP280;70537;44.384;0.512;2023-07-29T04:23:23;100978.97;;;19.03
77789;BMP280;70537;44.384;0.512;2023-07-29T04:25:49;100967.41;;;19.05
77789;BMP280;70537;44.384;0.512;2023-07-29T04:28:15;100967.81;;;19.09
77789;BMP280;70537;44.384;0.512;2023-07-29T04:30:41;100977.03;;;19.11
77789;BMP280;70537;44.384;0.512;2023-07-29T04:33:06;100988.75;;;19.12
77789;BMP280;70537;44.384;0.512;2023-07-29T04:35:32;101007.69;;;19.15
77789;BMP280;70537;44.384;0.512;2023-07-29T04:37:57;101015.41;;;19.17
77789;BMP280;70537;44.384;0.512;2023-07-29T04:40:23;101011.72;;;19.14
77789;BMP280;70537;44.384;0.512;2023-07-29T04:42:49;101019.28;;;19.21
77789;BMP280;70537;44.384;0.512;2023-07-29T04:45:14;101022.97;;;19.03
77789;BMP280;70537;44.384;0.512;2023-07-29T04:47:41;101026.69;;;19.06
77789;BMP280;70537;44.384;0.512;2023-07-29T04:50:07;101000.97;;;19.03
77789;BMP280;70537;44.384;0.512;2023-07-29T04:52:32;101002.66;;;19.06
77789;BMP280;70537;44.384;0.512;2023-07-29T04:54:58;101015.38;;;18.96
77789;BMP280;70537;44.384;0.512;2023-07-29T04:57:23;101006.91;;;18.94
77789;BMP280;70537;44.384;0.512;2023-07-29T04:59:49;101022.78;;;18.88
77789;BMP280;70537;44.384;0.512;2023-07-29T05:02:14;101025.75;;;18.90
77789;BMP280;70537;44.384;0.512;2023-07-29T05:04:40;101017.88;;;18.86
77789;BMP280;70537;44.384;0.512;2023-07-29T05:07:06;101017.59;;;18.98
77789;BMP280;70537;44.384;0.512;2023-07-29T05:09:31;101042.25;;;19.03
77789;BMP280;70537;44.384;0.512;2023-07-29T05:11:57;101041.66;;;18.97
77789;BMP280;70537;44.384;0.512;2023-07-29T05:14:22;101010.59;;;19.10
77789;BMP280;70537;44.384;0.512;2023-07-29T05:16:48;100986.00;;;19.12
77789;BMP280;70537;44.384;0.512;2023-07-29T05:19:14;100990.13;;;19.18
77789;BMP280;70537;44.384;0.512;2023-07-29T05:21:40;101002.59;;;19.19
77789;BMP280;70537;44.384;0.512;2023-07-29T05:24:06;101020.16;;;19.16
77789;BMP280;70537;44.384;0.512;2023-07-29T05:26:31;101024.75;;;19.14
77789;BMP280;70537;44.384;0.512;2023-07-29T05:28:57;101037.53;;;19.25
77789;BMP280;70537;44.384;0.512;2023-07-29T05:31:22;101037.19;;;19.28
77789;BMP280;70537;44.384;0.512;2023-07-29T05:33:48;101041.81;;;19.33
77789;BMP280;70537;44.384;0.512;2023-07-29T05:36:14;101045.72;;;19.38
77789;BMP280;70537;44.384;0.512;2023-07-29T05:38:39;101027.44;;;19.27
77789;BMP280;70537;44.384;0.512;2023-07-29T05:41:05;101031.94;;;19.38
77789;BMP280;70537;44.384;0.512;2023-07-29T05:43:30;101023.94;;;19.48
77789;BMP280;70537;44.384;0.512;2023-07-29T05:45:56;101027.44;;;19.48
77789;BMP280;70537;44.384;0.512;2023-07-29T05:48:21;101051.91;;;19.52
77789;BMP280;70537;44.384;0.512;2023-07-29T05:50:47;101037.22;;;19.57
77789;BMP280;70537;44.384;0.512;2023-07-29T05:53:14;101053.28;;;19.66
77789;BMP280;70537;44.384;0.512;2023-07-29T05:55:39;101049.06;;;19.65
77789;BMP280;70537;44.384;0.512;2023-07-29T05:58:05;101037.50;;;19.66
77789;BMP280;70537;44.384;0.512;2023-07-29T06:00:31;101053.88;;;19.72
77789;BMP280;70537;44.384;0.512;2023-07-29T06:02:56;101040.59;;;19.63
77789;BMP280;70537;44.384;0.512;2023-07-29T06:05:22;101058.47;;;19.69
77789;BMP280;70537;44.384;0.512;2023-07-29T06:07:47;101056.31;;;19.76
77789;BMP280;70537;44.384;0.512;2023-07-29T06:10:14;101055.88;;;19.92
77789;BMP280;70537;44.384;0.512;2023-07-29T06:12:43;101047.88;;;20.02
77789;BMP280;70537;44.384;0.512;2023-07-29T06:15:09;101063.41;;;20.20
77789;BMP280;70537;44.384;0.512;2023-07-29T06:17:35;101048.41;;;20.29
77789;BMP280;70537;44.384;0.512;2023-07-29T06:20:01;101040.13;;;20.29
77789;BMP280;70537;44.384;0.512;2023-07-29T06:22:26;101041.41;;;20.28
77789;BMP280;70537;44.384;0.512;2023-07-29T06:24:51;101043.63;;;20.30
77789;BMP280;70537;44.384;0.512;2023-07-29T06:27:17;101045.06;;;20.23
77789;BMP280;70537;44.384;0.512;2023-07-29T06:29:42;101059.78;;;20.33
77789;BMP280;70537;44.384;0.512;2023-07-29T06:32:08;101055.38;;;20.30
77789;BMP280;70537;44.384;0.512;2023-07-29T06:34:34;101063.72;;;20.45
77789;BMP280;70537;44.384;0.512;2023-07-29T06:37:01;101065.94;;;20.47
77789;BMP280;70537;44.384;0.512;2023-07-29T06:39:26;101073.16;;;20.58
77789;BMP280;70537;44.384;0.512;2023-07-29T06:41:52;101086.03;;;20.63
77789;BMP280;70537;44.384;0.512;2023-07-29T06:44:17;101080.00;;;20.64
77789;BMP280;70537;44.384;0.512;2023-07-29T06:46:42;101082.03;;;20.72
77789;BMP280;70537;44.384;0.512;2023-07-29T06:49:08;101073.59;;;20.77
77789;BMP280;70537;44.384;0.512;2023-07-29T06:51:34;101078.59;;;20.86
77789;BMP280;70537;44.384;0.512;2023-07-29T06:54:01;101062.81;;;20.94
77789;BMP280;70537;44.384;0.512;2023-07-29T06:56:27;101065.72;;;20.97
77789;BMP280;70537;44.384;0.512;2023-07-29T06:58:52;101066.72;;;21.14
77789;BMP280;70537;44.384;0.512;2023-07-29T07:01:18;101084.94;;;21.33
77789;BMP280;70537;44.384;0.512;2023-07-29T07:03:44;101097.28;;;21.47
77789;BMP280;70537;44.384;0.512;2023-07-29T07:06:09;101084.22;;;21.55
77789;BMP280;70537;44.384;0.512;2023-07-29T07:08:35;101087.34;;;21.59
77789;BMP280;70537;44.384;0.512;2023-07-29T07:11:00;101088.84;;;21.60
77789;BMP280;70537;44.384;0.512;2023-07-29T07:13:26;101077.41;;;21.49
77789;BMP280;70537;44.384;0.512;2023-07-29T07:15:54;101088.13;;;21.60
77789;BMP280;70537;44.384;0.512;2023-07-29T07:18:20;101089.56;;;21.76
77789;BMP280;70537;44.384;0.512;2023-07-29T07:20:50;101095.81;;;21.92
77789;BMP280;70537;44.384;0.512;2023-07-29T07:23:17;101097.47;;;22.03
77789;BMP280;70537;44.384;0.512;2023-07-29T07:25:43;101100.75;;;22.16
77789;BMP280;70537;44.384;0.512;2023-07-29T07:28:09;101097.00;;;22.29
77789;BMP280;70537;44.384;0.512;2023-07-29T07:30:35;101089.41;;;22.37
77789;BMP280;70537;44.384;0.512;2023-07-29T07:33:00;101088.47;;;22.50
77789;BMP280;70537;44.384;0.512;2023-07-29T07:35:26;101095.84;;;22.55
77789;BMP280;70537;44.384;0.512;2023-07-29T07:37:52;101106.44;;;22.74
77789;BMP280;70537;44.384;0.512;2023-07-29T07:40:18;101107.31;;;22.84
77789;BMP280;70537;44.384;0.512;2023-07-29T07:42:43;101103.78;;;22.84
77789;BMP280;70537;44.384;0.512;2023-07-29T07:45:09;101100.53;;;23.03
77789;BMP280;70537;44.384;0.512;2023-07-29T07:47:34;101112.66;;;23.15
77789;BMP280;70537;44.384;0.512;2023-07-29T07:50:00;101114.25;;;23.26
77789;BMP280;70537;44.384;0.512;2023-07-29T07:52:25;101107.94;;;23.33
77789;BMP280;70537;44.384;0.512;2023-07-29T07:54:54;101106.38;;;23.39
77789;BMP280;70537;44.384;0.512;2023-07-29T07:57:21;101115.38;;;23.47
77789;BMP280;70537;44.384;0.512;2023-07-29T07:59:47;101120.97;;;23.40
77789;BMP280;70537;44.384;0.512;2023-07-29T08:02:12;101113.34;;;23.48
77789;BMP280;70537;44.384;0.512;2023-07-29T08:04:38;101117.22;;;23.70
77789;BMP280;70537;44.384;0.512;2023-07-29T08:07:04;101111.16;;;23.64
77789;BMP280;70537;44.384;0.512;2023-07-29T08:09:29;101116.84;;;23.91
77789;BMP280;70537;44.384;0.512;2023-07-29T08:11:55;101125.81;;;24.16
77789;BMP280;70537;44.384;0.512;2023-07-29T08:14:20;101124.19;;;24.13
77789;BMP280;70537;44.384;0.512;2023-07-29T08:16:46;101117.50;;;24.16
77789;BMP280;70537;44.384;0.512;2023-07-29T08:19:11;101124.19;;;24.31
77789;BMP280;70537;44.384;0.512;2023-07-29T08:21:37;101122.28;;;24.33
77789;BMP280;70537;44.384;0.512;2023-07-29T08:24:02;101128.78;;;24.45
77789;BMP280;70537;44.384;0.512;2023-07-29T08:26:28;101125.50;;;24.57
77789;BMP280;70537;44.384;0.512;2023-07-29T08:28:54;101133.22;;;24.48
77789;BMP280;70537;44.384;0.512;2023-07-29T08:31:19;101133.22;;;24.48
77789;BMP280;70537;44.384;0.512;2023-07-29T08:33:45;101133.22;;;24.48
77789;BMP280;70537;44.384;0.512;2023-07-29T08:36:10;101136.59;;;24.57
77789;BMP280;70537;44.384;0.512;2023-07-29T08:38:36;101136.28;;;24.70
77789;BMP280;70537;44.384;0.512;2023-07-29T08:43:44;101142.09;;;24.91
77789;BMP280;70537;44.384;0.512;2023-07-29T08:46:15;101132.72;;;24.87
77789;BMP280;70537;44.384;0.512;2023-07-29T08:48:42;101141.38;;;24.91
77789;BMP280;70537;44.384;0.512;2023-07-29T08:51:10;101132.50;;;25.02
77789;BMP280;70537;44.384;0.512;2023-07-29T08:53:36;101139.28;;;25.18
77789;BMP280;70537;44.384;0.512;2023-07-29T08:56:02;101142.53;;;25.24
77789;BMP280;70537;44.384;0.512;2023-07-29T08:58:28;101144.66;;;25.43
77789;BMP280;70537;44.384;0.512;2023-07-29T09:00:54;101138.31;;;25.43
77789;BMP280;70537;44.384;0.512;2023-07-29T09:03:20;101135.28;;;25.58
77789;BMP280;70537;44.384;0.512;2023-07-29T09:05:46;101138.97;;;25.61
77789;BMP280;70537;44.384;0.512;2023-07-29T09:08:12;101134.28;;;25.63
77789;BMP280;70537;44.384;0.512;2023-07-29T09:10:37;101137.78;;;25.54
77789;BMP280;70537;44.384;0.512;2023-07-29T09:13:06;101140.16;;;25.67
77789;BMP280;70537;44.384;0.512;2023-07-29T09:15:34;101133.00;;;25.83
77789;BMP280;70537;44.384;0.512;2023-07-29T09:18:09;101138.25;;;25.89
77789;BMP280;70537;44.384;0.512;2023-07-29T09:20:35;101135.91;;;26.15
77789;BMP280;70537;44.384;0.512;2023-07-29T09:23:01;101143.00;;;26.66
77789;BMP280;70537;44.384;0.512;2023-07-29T09:25:28;101133.34;;;26.98
77789;BMP280;70537;44.384;0.512;2023-07-29T09:28:00;101133.03;;;27.35
77789;BMP280;70537;44.384;0.512;2023-07-29T09:30:26;101135.00;;;27.44
77789;BMP280;70537;44.384;0.512;2023-07-29T09:32:56;101132.28;;;27.56
77789;BMP280;70537;44.384;0.512;2023-07-29T09:35:22;101128.84;;;27.45
77789;BMP280;70537;44.384;0.512;2023-07-29T09:37:48;101138.19;;;27.50
77789;BMP280;70537;44.384;0.512;2023-07-29T09:40:14;101136.00;;;27.49
77789;BMP280;70537;44.384;0.512;2023-07-29T09:42:54;101133.28;;;27.60
77789;BMP280;70537;44.384;0.512;2023-07-29T09:45:24;101128.31;;;27.37
77789;BMP280;70537;44.384;0.512;2023-07-29T09:47:50;101139.28;;;27.66
77789;BMP280;70537;44.384;0.512;2023-07-29T09:50:16;101145.66;;;27.90
77789;BMP280;70537;44.384;0.512;2023-07-29T09:52:42;101147.56;;;28.09
77789;BMP280;70537;44.384;0.512;2023-07-29T09:55:11;101124.97;;;27.72
77789;BMP280;70537;44.384;0.512;2023-07-29T09:57:37;101136.00;;;27.70
77789;BMP280;70537;44.384;0.512;2023-07-29T10:00:04;101138.81;;;28.03
77789;BMP280;70537;44.384;0.512;2023-07-29T10:02:39;101126.25;;;28.37
77789;BMP280;70537;44.384;0.512;2023-07-29T10:05:07;101130.69;;;28.75
77789;BMP280;70537;44.384;0.512;2023-07-29T10:07:34;101131.28;;;28.62
77789;BMP280;70537;44.384;0.512;2023-07-29T10:10:01;101131.03;;;28.46
77789;BMP280;70537;44.384;0.512;2023-07-29T10:12:29;101122.78;;;28.60
77789;BMP280;70537;44.384;0.512;2023-07-29T10:15:02;101124.13;;;28.59
77789;BMP280;70537;44.384;0.512;2023-07-29T10:17:28;101131.78;;;28.59
77789;BMP280;70537;44.384;0.512;2023-07-29T10:19:56;101133.09;;;28.81
77789;BMP280;70537;44.384;0.512;2023-07-29T10:22:25;101134.53;;;29.17
77789;BMP280;70537;44.384;0.512;2023-07-29T10:24:53;101120.16;;;29.60
77789;BMP280;70537;44.384;0.512;2023-07-29T10:27:20;101121.13;;;29.64
77789;BMP280;70537;44.384;0.512;2023-07-29T10:29:48;101124.28;;;29.71
77789;BMP280;70537;44.384;0.512;2023-07-29T10:32:14;101119.72;;;29.77
77789;BMP280;70537;44.384;0.512;2023-07-29T10:34:42;101113.06;;;30.10
77789;BMP280;70537;44.384;0.512;2023-07-29T10:37:08;101112.94;;;30.47
77789;BMP280;70537;44.384;0.512;2023-07-29T10:39:38;101111.09;;;30.38
77789;BMP280;70537;44.384;0.512;2023-07-29T10:42:06;101121.56;;;30.65
77789;BMP280;70537;44.384;0.512;2023-07-29T10:47:23;101129.88;;;30.63
77789;BMP280;70537;44.384;0.512;2023-07-29T10:49:54;101121.72;;;31.10
77789;BMP280;70537;44.384;0.512;2023-07-29T10:55:02;101126.50;;;31.51
77789;BMP280;70537;44.384;0.512;2023-07-29T10:57:41;101120.28;;;31.09
77789;BMP280;70537;44.384;0.512;2023-07-29T11:00:10;101115.66;;;31.29
77789;BMP280;70537;44.384;0.512;2023-07-29T11:02:37;101119.00;;;31.26
77789;BMP280;70537;44.384;0.512;2023-07-29T11:05:16;101112.53;;;31.82
77789;BMP280;70537;44.384;0.512;2023-07-29T11:07:48;101110.91;;;32.09
77789;BMP280;70537;44.384;0.512;2023-07-29T11:10:14;101110.91;;;31.93
77789;BMP280;70537;44.384;0.512;2023-07-29T11:12:44;101119.41;;;31.79
77789;BMP280;70537;44.384;0.512;2023-07-29T11:20:17;101121.88;;;32.03
77789;BMP280;70537;44.384;0.512;2023-07-29T11:22:43;101122.34;;;31.97
77789;BMP280;70537;44.384;0.512;2023-07-29T11:25:11;101125.16;;;31.97
77789;BMP280;70537;44.384;0.512;2023-07-29T11:27:37;101118.19;;;31.53
77789;BMP280;70537;44.384;0.512;2023-07-29T11:30:04;101120.81;;;31.05
77789;BMP280;70537;44.384;0.512;2023-07-29T11:32:31;101113.00;;;31.04
77789;BMP280;70537;44.384;0.512;2023-07-29T11:35:01;101121.41;;;31.77
77789;BMP280;70537;44.384;0.512;2023-07-29T11:37:27;101117.09;;;32.21
77789;BMP280;70537;44.384;0.512;2023-07-29T11:39:52;101110.16;;;33.07
77789;BMP280;70537;44.384;0.512;2023-07-29T11:42:18;101102.44;;;33.25
77789;BMP280;70537;44.384;0.512;2023-07-29T11:44:44;101112.22;;;32.89
77789;BMP280;70537;44.384;0.512;2023-07-29T11:47:10;101104.22;;;32.65
77789;BMP280;70537;44.384;0.512;2023-07-29T11:49:38;101099.19;;;32.97
77789;BMP280;70537;44.384;0.512;2023-07-29T11:52:07;101091.66;;;33.02
77789;BMP280;70537;44.384;0.512;2023-07-29T11:54:33;101096.38;;;33.51
77789;BMP280;70537;44.384;0.512;2023-07-29T11:56:59;101096.38;;;33.51
77789;BMP280;70537;44.384;0.512;2023-07-29T11:59:25;101097.94;;;33.74
77789;BMP280;70537;44.384;0.512;2023-07-29T12:01:51;101079.63;;;33.17
77789;BMP280;70537;44.384;0.512;2023-07-29T12:04:17;101082.50;;;33.01
77789;BMP280;70537;44.384;0.512;2023-07-29T12:06:42;101075.75;;;33.26
77789;BMP280;70537;44.384;0.512;2023-07-29T12:09:08;101081.44;;;33.28
77789;BMP280;70537;44.384;0.512;2023-07-29T12:11:34;101089.41;;;33.16
77789;BMP280;70537;44.384;0.512;2023-07-29T12:14:00;101082.34;;;33.33
77789;BMP280;70537;44.384;0.512;2023-07-29T12:16:26;101081.13;;;33.38
77789;BMP280;70537;44.384;0.512;2023-07-29T12:18:51;101083.91;;;33.56
77789;BMP280;70537;44.384;0.512;2023-07-29T12:21:19;101079.88;;;33.81
77789;BMP280;70537;44.384;0.512;2023-07-29T12:23:44;101080.75;;;33.66
77789;BMP280;70537;44.384;0.512;2023-07-29T12:26:10;101080.06;;;33.47
77789;BMP280;70537;44.384;0.512;2023-07-29T12:28:35;101076.91;;;32.68
77789;BMP280;70537;44.384;0.512;2023-07-29T12:31:01;101073.78;;;31.79
77789;BMP280;70537;44.384;0.512;2023-07-29T12:33:36;101086.38;;;31.32
77789;BMP280;70537;44.384;0.512;2023-07-29T12:36:04;101071.22;;;30.81
77789;BMP280;70537;44.384;0.512;2023-07-29T12:38:30;101078.66;;;31.17
77789;BMP280;70537;44.384;0.512;2023-07-29T12:40:55;101072.56;;;31.23
77789;BMP280;70537;44.384;0.512;2023-07-29T12:43:22;101078.84;;;32.14
77789;BMP280;70537;44.384;0.512;2023-07-29T12:45:51;101079.09;;;32.36
77789;BMP280;70537;44.384;0.512;2023-07-29T12:48:17;101066.88;;;31.82
77789;BMP280;70537;44.384;0.512;2023-07-29T12:50:42;101069.69;;;31.82
77789;BMP280;70537;44.384;0.512;2023-07-29T12:53:09;101069.38;;;31.44
77789;BMP280;70537;44.384;0.512;2023-07-29T12:55:37;101071.63;;;31.02
77789;BMP280;70537;44.384;0.512;2023-07-29T12:58:03;101069.53;;;30.89
77789;BMP280;70537;44.384;0.512;2023-07-29T13:00:29;101077.22;;;32.09
77789;BMP280;70537;44.384;0.512;2023-07-29T13:02:55;101073.19;;;32.45
77789;BMP280;70537;44.384;0.512;2023-07-29T13:05:20;101069.31;;;32.88
77789;BMP280;70537;44.384;0.512;2023-07-29T13:07:47;101066.88;;;32.29
77789;BMP280;70537;44.384;0.512;2023-07-29T13:10:13;101066.88;;;32.29
77789;BMP280;70537;44.384;0.512;2023-07-29T13:12:39;101070.75;;;32.38
77789;BMP280;70537;44.384;0.512;2023-07-29T13:15:06;101066.25;;;32.64
77789;BMP280;70537;44.384;0.512;2023-07-29T13:17:32;101057.06;;;33.15
77789;BMP280;70537;44.384;0.512;2023-07-29T13:19:58;101067.31;;;33.64
77789;BMP280;70537;44.384;0.512;2023-07-29T13:22:23;101066.69;;;33.28
77789;BMP280;70537;44.384;0.512;2023-07-29T13:24:49;101064.63;;;32.59
77789;BMP280;70537;44.384;0.512;2023-07-29T13:27:15;101060.72;;;32.66
77789;BMP280;70537;44.384;0.512;2023-07-29T13:29:40;101060.13;;;32.36
77789;BMP280;70537;44.384;0.512;2023-07-29T13:32:07;101054.38;;;32.32
77789;BMP280;70537;44.384;0.512;2023-07-29T13:34:36;101061.09;;;31.94
77789;BMP280;70537;44.384;0.512;2023-07-29T13:37:02;101056.09;;;31.60
77789;BMP280;70537;44.384;0.512;2023-07-29T13:39:28;101060.97;;;30.71
77789;BMP280;70537;44.384;0.512;2023-07-29T13:41:54;101070.50;;;30.53
77789;BMP280;70537;44.384;0.512;2023-07-29T13:44:20;101069.34;;;30.85
77789;BMP280;70537;44.384;0.512;2023-07-29T13:46:46;101059.25;;;30.94
77789;BMP280;70537;44.384;0.512;2023-07-29T13:49:11;101061.53;;;31.11
77789;BMP280;70537;44.384;0.512;2023-07-29T13:51:38;101063.00;;;30.98
77789;BMP280;70537;44.384;0.512;2023-07-29T13:54:08;101067.22;;;30.56
77789;BMP280;70537;44.384;0.512;2023-07-29T13:56:34;101061.97;;;30.78
77789;BMP280;70537;44.384;0.512;2023-07-29T13:59:00;101066.84;;;30.91
77789;BMP280;70537;44.384;0.512;2023-07-29T14:01:26;101067.19;;;31.43
77789;BMP280;70537;44.384;0.512;2023-07-29T14:03:53;101064.88;;;32.32
77789;BMP280;70537;44.384;0.512;2023-07-29T14:06:20;101058.28;;;32.59
77789;BMP280;70537;44.384;0.512;2023-07-29T14:08:45;101060.47;;;33.14
77789;BMP280;70537;44.384;0.512;2023-07-29T14:11:11;101053.88;;;33.25